sensor_id;sensor_type;location;lat;lon;timestamp;P1;durP1;ratioP1;P2;durP2;ratioP2
15151;SDS011;7676;50.900;6.234;2023-05-07T00:04:26;2.90;;;2.53;;
15151;SDS011;7676;50.900;6.234;2023-05-07T00:19:44;4.07;;;2.80;;
15151;SDS011;7676;50.900;6.234;2023-05-07T00:35:00;3.50;;;2.90;;
15151;SDS011;7676;50.900;6.234;2023-05-07T00:50:06;6.33;;;3.40;;
15151;SDS011;7676;50.900;6.234;2023-05-07T01:05:13;6.00;;;3.03;;
15151;SDS011;7676;50.900;6.234;2023-05-07T01:20:22;3.60;;;2.93;;
15151;SDS011;7676;50.900;6.234;2023-05-07T01:35:30;4.17;;;3.30;;
15151;SDS011;7676;50.900;6.234;2023-05-07T01:50:52;4.07;;;3.27;;
15151;SDS011;7676;50.900;6.234;2023-05-07T02:06:09;3.83;;;3.23;;
15151;SDS011;7676;50.900;6.234;2023-05-07T02:21:14;4.97;;;3.30;;
15151;SDS011;7676;50.900;6.234;2023-05-07T02:36:20;7.07;;;3.60;;
15151;SDS011;7676;50.900;6.234;2023-05-07T02:51:35;5.10;;;3.40;;
15151;SDS011;7676;50.900;6.234;2023-05-07T03:06:46;5.03;;;3.83;;
15151;SDS011;7676;50.900;6.234;2023-05-07T03:22:03;4.17;;;3.33;;
15151;SDS011;7676;50.900;6.234;2023-05-07T03:37:06;7.53;;;3.83;;
15151;SDS011;7676;50.900;6.234;2023-05-07T03:52:22;6.10;;;3.40;;
15151;SDS011;7676;50.900;6.234;2023-05-07T04:07:34;11.27;;;3.80;;
15151;SDS011;7676;50.900;6.234;2023-05-07T04:22:37;3.80;;;3.33;;
15151;SDS011;7676;50.900;6.234;2023-05-07T04:37:44;6.90;;;3.53;;
15151;SDS011;7676;50.900;6.234;2023-05-07T04:52:52;3.20;;;2.77;;
15151;SDS011;7676;50.900;6.234;2023-05-07T05:07:59;4.83;;;3.33;;
15151;SDS011;7676;50.900;6.234;2023-05-07T05:23:02;3.07;;;2.77;;
15151;SDS011;7676;50.900;6.234;2023-05-07T05:38:09;3.33;;;3.03;;
15151;SDS011;7676;50.900;6.234;2023-05-07T05:53:16;4.33;;;3.57;;
15151;SDS011;7676;50.900;6.234;2023-05-07T06:08:22;4.57;;;3.37;;
15151;SDS011;7676;50.900;6.234;2023-05-07T06:23:38;5.43;;;2.97;;
15151;SDS011;7676;50.900;6.234;2023-05-07T06:38:43;4.20;;;3.27;;
15151;SDS011;7676;50.900;6.234;2023-05-07T06:53:55;6.20;;;4.10;;
15151;SDS011;7676;50.900;6.234;2023-05-07T07:08:59;3.87;;;3.47;;
15151;SDS011;7676;50.900;6.234;2023-05-07T07:24:06;4.33;;;3.33;;
15151;SDS011;7676;50.900;6.234;2023-05-07T07:39:10;5.07;;;3.97;;
15151;SDS011;7676;50.900;6.234;2023-05-07T07:54:13;3.60;;;2.90;;
15151;SDS011;7676;50.900;6.234;2023-05-07T08:09:17;3.90;;;2.80;;
15151;SDS011;7676;50.900;6.234;2023-05-07T08:24:22;2.90;;;2.60;;
15151;SDS011;7676;50.900;6.234;2023-05-07T08:39:30;3.73;;;2.90;;
15151;SDS011;7676;50.900;6.234;2023-05-07T08:54:33;7.77;;;4.67;;
15151;SDS011;7676;50.900;6.234;2023-05-07T09:09:39;5.13;;;3.40;;
15151;SDS011;7676;50.900;6.234;2023-05-07T09:24:50;5.03;;;3.70;;
15151;SDS011;7676;50.900;6.234;2023-05-07T09:39:58;3.93;;;2.27;;
15151;SDS011;7676;50.900;6.234;2023-05-07T09:55:16;2.97;;;2.30;;
15151;SDS011;7676;50.900;6.234;2023-05-07T10:10:23;4.60;;;2.67;;
15151;SDS011;7676;50.900;6.234;2023-05-07T10:25:30;3.00;;;2.13;;
15151;SDS011;7676;50.900;6.234;2023-05-07T10:40:43;2.63;;;2.03;;
15151;SDS011;7676;50.900;6.234;2023-05-07T10:55:51;2.47;;;1.87;;
15151;SDS011;7676;50.900;6.234;2023-05-07T11:11:33;4.00;;;1.87;;
15151;SDS011;7676;50.900;6.234;2023-05-07T11:27:08;1.67;;;1.50;;
15151;SDS011;7676;50.900;6.234;2023-05-07T11:42:28;2.23;;;1.57;;
15151;SDS011;7676;50.900;6.234;2023-05-07T11:57:35;1.87;;;1.63;;
15151;SDS011;7676;50.900;6.234;2023-05-07T12:12:51;1.80;;;1.50;;
15151;SDS011;7676;50.900;6.234;2023-05-07T12:27:55;2.27;;;1.43;;
15151;SDS011;7676;50.900;6.234;2023-05-07T12:43:02;2.10;;;1.90;;
15151;SDS011;7676;50.900;6.234;2023-05-07T12:58:14;2.70;;;1.87;;
15151;SDS011;7676;50.900;6.234;2023-05-07T13:13:26;4.30;;;3.37;;
15151;SDS011;7676;50.900;6.234;2023-05-07T13:28:33;4.70;;;3.10;;
15151;SDS011;7676;50.900;6.234;2023-05-07T13:43:36;3.00;;;2.57;;
15151;SDS011;7676;50.900;6.234;2023-05-07T13:58:39;2.80;;;2.60;;
15151;SDS011;7676;50.900;6.234;2023-05-07T14:13:58;2.50;;;2.30;;
15151;SDS011;7676;50.900;6.234;2023-05-07T14:29:01;2.50;;;2.30;;
15151;SDS011;7676;50.900;6.234;2023-05-07T14:44:07;2.43;;;1.80;;
15151;SDS011;7676;50.900;6.234;2023-05-07T14:59:14;1.53;;;1.43;;
15151;SDS011;7676;50.900;6.234;2023-05-07T15:14:34;1.63;;;1.53;;
15151;SDS011;7676;50.900;6.234;2023-05-07T15:29:37;3.43;;;2.47;;
15151;SDS011;7676;50.900;6.234;2023-05-07T15:44:40;4.23;;;2.87;;
15151;SDS011;7676;50.900;6.234;2023-05-07T15:59:58;4.13;;;3.20;;
15151;SDS011;7676;50.900;6.234;2023-05-07T16:15:02;4.00;;;3.50;;
15151;SDS011;7676;50.900;6.234;2023-05-07T16:30:24;5.17;;;4.20;;
15151;SDS011;7676;50.900;6.234;2023-05-07T16:45:28;5.20;;;4.33;;
15151;SDS011;7676;50.900;6.234;2023-05-07T17:00:34;5.97;;;5.37;;
15151;SDS011;7676;50.900;6.234;2023-05-07T17:16:06;7.77;;;6.57;;
15151;SDS011;7676;50.900;6.234;2023-05-07T17:31:24;5.83;;;5.20;;
15151;SDS011;7676;50.900;6.234;2023-05-07T17:46:41;7.80;;;6.13;;
15151;SDS011;7676;50.900;6.234;2023-05-07T18:01:48;17.77;;;15.87;;
15151;SDS011;7676;50.900;6.234;2023-05-07T18:16:55;7.67;;;6.23;;
15151;SDS011;7676;50.900;6.234;2023-05-07T18:32:01;7.13;;;6.17;;
15151;SDS011;7676;50.900;6.234;2023-05-07T18:47:04;6.77;;;6.10;;
15151;SDS011;7676;50.900;6.234;2023-05-07T19:02:08;7.73;;;6.43;;
15151;SDS011;7676;50.900;6.234;2023-05-07T19:17:11;6.00;;;5.40;;
15151;SDS011;7676;50.900;6.234;2023-05-07T19:32:15;6.33;;;5.33;;
15151;SDS011;7676;50.900;6.234;2023-05-07T19:47:26;5.90;;;5.17;;
15151;SDS011;7676;50.900;6.234;2023-05-07T20:02:32;6.73;;;6.10;;
15151;SDS011;7676;50.900;6.234;2023-05-07T20:17:49;6.07;;;5.47;;
15151;SDS011;7676;50.900;6.234;2023-05-07T20:32:52;7.03;;;6.33;;
15151;SDS011;7676;50.900;6.234;2023-05-07T20:48:10;5.97;;;5.37;;
15151;SDS011;7676;50.900;6.234;2023-05-07T21:03:16;6.50;;;5.73;;
15151;SDS011;7676;50.900;6.234;2023-05-07T21:18:33;6.67;;;5.97;;
15151;SDS011;7676;50.900;6.234;2023-05-07T21:33:51;6.87;;;6.17;;
15151;SDS011;7676;50.900;6.234;2023-05-07T21:49:08;6.87;;;6.20;;
15151;SDS011;7676;50.900;6.234;2023-05-07T22:04:25;8.17;;;7.17;;
15151;SDS011;7676;50.900;6.234;2023-05-07T22:19:35;9.27;;;8.40;;
15151;SDS011;7676;50.900;6.234;2023-05-07T22:34:58;9.23;;;8.43;;
15151;SDS011;7676;50.900;6.234;2023-05-07T22:50:18;9.50;;;8.60;;
15151;SDS011;7676;50.900;6.234;2023-05-07T23:05:22;8.80;;;8.00;;
15151;SDS011;7676;50.900;6.234;2023-05-07T23:20:39;11.70;;;10.63;;
15151;SDS011;7676;50.900;6.234;2023-05-07T23:35:42;12.33;;;11.23;;
15151;SDS011;7676;50.900;6.234;2023-05-07T23:50:45;11.87;;;10.87;;
